sensor_id;sensor_type;location;lat;lon;timestamp;pressure;altitude;pressure_sealevel;temperature;humidity
20455;BME280;10386;54.314;10.022;2023-05-02T00:00:50;101557.03;;;11.02;100.00
20455;BME280;10386;54.314;10.022;2023-05-02T00:03:16;101541.72;;;11.01;100.00
20455;BME280;10386;54.314;10.022;2023-05-02T00:05:44;101528.13;;;11.01;100.00
20455;BME280;10386;54.314;10.022;2023-05-02T00:08:10;101521.06;;;10.98;100.00
20455;BME280;10386;54.314;10.022;2023-05-02T00:10:38;101523.19;;;10.94;100.00
20455;BME280;10386;54.314;10.022;2023-05-02T00:13:04;101516.78;;;10.95;100.00
20455;BME280;10386;54.314;10.022;2023-05-02T00:15:31;101512.53;;;11.04;100.00
20455;BME280;10386;54.314;10.022;2023-05-02T00:17:58;101503.97;;;10.97;100.00
20455;BME280;10386;54.314;10.022;2023-05-02T00:20:25;101503.00;;;10.98;100.00
20455;BME280;10386;54.314;10.022;2023-05-02T00:22:53;101496.69;;;10.97;100.00
20455;BME280;10386;54.314;10.022;2023-05-02T00:25:20;101492.03;;;10.99;100.00
20455;BME280;10386;54.314;10.022;2023-05-02T00:27:47;101487.56;;;10.98;100.00
20455;BME280;10386;54.314;10.022;2023-05-02T00:30:17;101473.59;;;11.04;100.00
20455;BME280;10386;54.314;10.022;2023-05-02T00:32:44;101484.09;;;11.10;100.00
20455;BME280;10386;54.314;10.022;2023-05-02T00:35:11;101476.81;;;10.97;100.00
20455;BME280;10386;54.314;10.022;2023-05-02T00:37:38;101473.44;;;11.07;100.00
20455;BME280;10386;54.314;10.022;2023-05-02T00:40:06;101463.69;;;11.03;100.00
20455;BME280;10386;54.314;10.022;2023-05-02T00:42:33;101460.91;;;11.04;100.00
20455;BME280;10386;54.314;10.022;2023-05-02T00:45:03;101457.13;;;11.07;100.00
20455;BME280;10386;54.314;10.022;2023-05-02T00:47:32;101459.34;;;11.00;100.00
20455;BME280;10386;54.314;10.022;2023-05-02T00:49:59;101457.69;;;10.98;100.00
20455;BME280;10386;54.314;10.022;2023-05-02T00:52:28;101453.72;;;10.90;100.00
20455;BME280;10386;54.314;10.022;2023-05-02T00:54:54;101450.88;;;10.91;100.00
20455;BME280;10386;54.314;10.022;2023-05-02T00:57:22;101434.59;;;10.91;100.00
20455;BME280;10386;54.314;10.022;2023-05-02T00:59:49;101437.69;;;10.85;100.00
20455;BME280;10386;54.314;10.022;2023-05-02T01:02:48;101439.81;;;10.80;100.00
20455;BME280;10386;54.314;10.022;2023-05-02T01:05:20;101436.63;;;10.74;100.00
20455;BME280;10386;54.314;10.022;2023-05-02T01:10:59;101431.25;;;10.58;100.00
20455;BME280;10386;54.314;10.022;2023-05-02T01:13:32;101422.41;;;10.41;100.00
20455;BME280;10386;54.314;10.022;2023-05-02T01:16:01;101422.03;;;10.17;100.00
20455;BME280;10386;54.314;10.022;2023-05-02T01:18:34;101422.00;;;10.03;100.00
20455;BME280;10386;54.314;10.022;2023-05-02T01:21:06;101409.13;;;9.91;100.00
20455;BME280;10386;54.314;10.022;2023-05-02T01:23:42;101410.47;;;9.84;100.00
20455;BME280;10386;54.314;10.022;2023-05-02T01:26:35;101416.59;;;9.72;100.00
20455;BME280;10386;54.314;10.022;2023-05-02T01:29:10;101422.56;;;9.63;100.00
20455;BME280;10386;54.314;10.022;2023-05-02T01:31:41;101420.47;;;9.53;100.00
20455;BME280;10386;54.314;10.022;2023-05-02T01:34:10;101430.00;;;9.45;100.00
20455;BME280;10386;54.314;10.022;2023-05-02T01:36:42;101430.25;;;9.25;100.00
20455;BME280;10386;54.314;10.022;2023-05-02T01:39:13;101469.66;;;8.82;100.00
20455;BME280;10386;54.314;10.022;2023-05-02T01:41:42;101491.59;;;8.61;100.00
20455;BME280;10386;54.314;10.022;2023-05-02T01:44:10;101490.63;;;8.45;100.00
20455;BME280;10386;54.314;10.022;2023-05-02T01:46:39;101513.53;;;8.38;100.00
20455;BME280;10386;54.314;10.022;2023-05-02T01:49:07;101514.00;;;8.29;100.00
20455;BME280;10386;54.314;10.022;2023-05-02T01:51:37;101550.59;;;8.19;100.00
20455;BME280;10386;54.314;10.022;2023-05-02T01:54:07;101559.88;;;8.14;100.00
20455;BME280;10386;54.314;10.022;2023-05-02T01:56:36;101593.19;;;7.96;100.00
20455;BME280;10386;54.314;10.022;2023-05-02T01:59:08;101606.44;;;7.83;100.00
20455;BME280;10386;54.314;10.022;2023-05-02T02:01:38;101621.41;;;7.72;100.00
20455;BME280;10386;54.314;10.022;2023-05-02T02:04:08;101635.53;;;7.58;100.00
20455;BME280;10386;54.314;10.022;2023-05-02T02:06:35;101645.53;;;7.56;100.00
20455;BME280;10386;54.314;10.022;2023-05-02T02:09:02;101657.59;;;7.49;100.00
20455;BME280;10386;54.314;10.022;2023-05-02T02:11:45;101675.69;;;7.47;100.00
20455;BME280;10386;54.314;10.022;2023-05-02T02:14:19;101681.31;;;7.43;100.00
20455;BME280;10386;54.314;10.022;2023-05-02T02:16:47;101682.53;;;7.36;100.00
20455;BME280;10386;54.314;10.022;2023-05-02T02:19:16;101703.19;;;7.37;100.00
20455;BME280;10386;54.314;10.022;2023-05-02T02:21:45;101708.53;;;7.38;100.00
20455;BME280;10386;54.314;10.022;2023-05-02T02:24:15;101719.28;;;7.40;100.00
20455;BME280;10386;54.314;10.022;2023-05-02T02:26:43;101719.94;;;7.45;100.00
20455;BME280;10386;54.314;10.022;2023-05-02T02:29:11;101731.88;;;7.39;100.00
20455;BME280;10386;54.314;10.022;2023-05-02T02:31:38;101737.28;;;7.39;100.00
20455;BME280;10386;54.314;10.022;2023-05-02T02:34:05;101743.50;;;7.41;100.00
20455;BME280;10386;54.314;10.022;2023-05-02T02:36:44;101746.47;;;7.35;100.00
20455;BME280;10386;54.314;10.022;2023-05-02T02:39:28;101757.53;;;7.29;100.00
20455;BME280;10386;54.314;10.022;2023-05-02T02:42:28;101762.81;;;7.32;100.00
20455;BME280;10386;54.314;10.022;2023-05-02T02:45:31;101771.72;;;7.34;100.00
20455;BME280;10386;54.314;10.022;2023-05-02T02:48:19;101786.31;;;7.30;100.00
20455;BME280;10386;54.314;10.022;2023-05-02T02:51:13;101801.91;;;7.24;100.00
20455;BME280;10386;54.314;10.022;2023-05-02T02:56:29;101819.22;;;7.18;100.00
20455;BME280;10386;54.314;10.022;2023-05-02T02:59:25;101825.50;;;7.19;100.00
20455;BME280;10386;54.314;10.022;2023-05-02T03:02:11;101841.78;;;7.17;100.00
20455;BME280;10386;54.314;10.022;2023-05-02T03:04:41;101840.28;;;7.10;100.00
20455;BME280;10386;54.314;10.022;2023-05-02T03:07:09;101852.16;;;7.06;100.00
20455;BME280;10386;54.314;10.022;2023-05-02T03:09:43;101853.22;;;7.02;100.00
20455;BME280;10386;54.314;10.022;2023-05-02T03:12:11;101855.91;;;7.02;100.00
20455;BME280;10386;54.314;10.022;2023-05-02T03:14:38;101857.47;;;7.08;100.00
20455;BME280;10386;54.314;10.022;2023-05-02T03:17:05;101849.50;;;7.05;100.00
20455;BME280;10386;54.314;10.022;2023-05-02T03:19:33;101855.91;;;7.02;100.00
20455;BME280;10386;54.314;10.022;2023-05-02T03:22:00;101872.84;;;7.06;100.00
20455;BME280;10386;54.314;10.022;2023-05-02T03:24:27;101875.50;;;7.07;100.00
20455;BME280;10386;54.314;10.022;2023-05-02T03:26:55;101887.25;;;7.06;100.00
20455;BME280;10386;54.314;10.022;2023-05-02T03:29:22;101890.88;;;7.05;100.00
20455;BME280;10386;54.314;10.022;2023-05-02T03:31:50;101898.09;;;7.05;100.00
20455;BME280;10386;54.314;10.022;2023-05-02T03:34:17;101896.53;;;6.99;100.00
20455;BME280;10386;54.314;10.022;2023-05-02T03:36:45;101890.13;;;7.02;100.00
20455;BME280;10386;54.314;10.022;2023-05-02T03:39:11;101901.59;;;7.07;100.00
20455;BME280;10386;54.314;10.022;2023-05-02T03:41:38;101902.06;;;6.96;100.00
20455;BME280;10386;54.314;10.022;2023-05-02T03:44:05;101901.84;;;7.01;100.00
20455;BME280;10386;54.314;10.022;2023-05-02T03:46:32;101915.44;;;6.99;100.00
20455;BME280;10386;54.314;10.022;2023-05-02T03:48:58;101919.81;;;7.02;100.00
20455;BME280;10386;54.314;10.022;2023-05-02T03:51:25;101920.75;;;7.01;100.00
20455;BME280;10386;54.314;10.022;2023-05-02T03:53:52;101915.72;;;6.92;100.00
20455;BME280;10386;54.314;10.022;2023-05-02T03:56:19;101922.50;;;6.81;100.00
20455;BME280;10386;54.314;10.022;2023-05-02T03:58:47;101935.22;;;6.77;100.00
20455;BME280;10386;54.314;10.022;2023-05-02T04:01:15;101946.97;;;6.75;100.00
20455;BME280;10386;54.314;10.022;2023-05-02T04:03:42;101957.03;;;6.71;100.00
20455;BME280;10386;54.314;10.022;2023-05-02T04:06:09;101952.72;;;6.66;100.00
20455;BME280;10386;54.314;10.022;2023-05-02T04:08:36;101960.56;;;6.73;100.00
20455;BME280;10386;54.314;10.022;2023-05-02T04:11:03;101966.69;;;6.77;100.00
20455;BME280;10386;54.314;10.022;2023-05-02T04:13:29;101971.47;;;6.70;100.00
20455;BME280;10386;54.314;10.022;2023-05-02T04:15:56;101974.28;;;6.67;100.00
20455;BME280;10386;54.314;10.022;2023-05-02T04:18:23;101974.38;;;6.64;100.00
20455;BME280;10386;54.314;10.022;2023-05-02T04:20:50;101970.69;;;6.67;100.00
20455;BME280;10386;54.314;10.022;2023-05-02T04:23:16;101977.72;;;6.71;100.00
20455;BME280;10386;54.314;10.022;2023-05-02T04:25:50;101980.38;;;6.72;100.00
20455;BME280;10386;54.314;10.022;2023-05-02T04:28:21;101976.78;;;6.72;100.00
20455;BME280;10386;54.314;10.022;2023-05-02T04:30:48;101986.88;;;6.67;100.00
20455;BME280;10386;54.314;10.022;2023-05-02T04:33:16;101990.72;;;6.84;100.00
20455;BME280;10386;54.314;10.022;2023-05-02T04:35:43;101990.00;;;6.79;100.00
20455;BME280;10386;54.314;10.022;2023-05-02T04:38:10;101996.50;;;6.74;100.00
20455;BME280;10386;54.314;10.022;2023-05-02T04:40:37;101990.88;;;6.79;100.00
20455;BME280;10386;54.314;10.022;2023-05-02T04:43:04;101998.25;;;6.75;100.00
20455;BME280;10386;54.314;10.022;2023-05-02T04:45:31;101998.81;;;6.84;100.00
20455;BME280;10386;54.314;10.022;2023-05-02T04:47:58;102011.09;;;6.92;100.00
20455;BME280;10386;54.314;10.022;2023-05-02T04:50:25;102013.56;;;6.98;100.00
20455;BME280;10386;54.314;10.022;2023-05-02T04:52:53;102007.94;;;7.04;100.00
20455;BME280;10386;54.314;10.022;2023-05-02T04:55:20;102018.25;;;7.16;100.00
20455;BME280;10386;54.314;10.022;2023-05-02T04:57:47;102013.09;;;7.10;100.00
20455;BME280;10386;54.314;10.022;2023-05-02T05:00:14;102020.13;;;7.14;100.00
20455;BME280;10386;54.314;10.022;2023-05-02T05:02:41;102033.41;;;7.20;100.00
20455;BME280;10386;54.314;10.022;2023-05-02T05:05:08;102034.06;;;7.27;100.00
20455;BME280;10386;54.314;10.022;2023-05-02T05:07:35;102043.16;;;7.24;100.00
20455;BME280;10386;54.314;10.022;2023-05-02T05:10:02;102054.41;;;7.12;100.00
20455;BME280;10386;54.314;10.022;2023-05-02T05:12:29;102060.28;;;7.23;100.00
20455;BME280;10386;54.314;10.022;2023-05-02T05:14:56;102059.34;;;7.24;100.00
20455;BME280;10386;54.314;10.022;2023-05-02T05:17:23;102056.81;;;7.20;100.00
20455;BME280;10386;54.314;10.022;2023-05-02T05:19:49;102058.41;;;7.25;100.00
20455;BME280;10386;54.314;10.022;2023-05-02T05:22:16;102056.53;;;7.27;100.00
20455;BME280;10386;54.314;10.022;2023-05-02T05:24:50;102054.28;;;7.38;100.00
20455;BME280;10386;54.314;10.022;2023-05-02T05:27:17;102063.09;;;7.43;100.00
20455;BME280;10386;54.314;10.022;2023-05-02T05:29:43;102062.72;;;7.31;100.00
20455;BME280;10386;54.314;10.022;2023-05-02T05:32:10;102065.09;;;7.38;100.00
20455;BME280;10386;54.314;10.022;2023-05-02T05:34:37;102062.28;;;7.41;100.00
20455;BME280;10386;54.314;10.022;2023-05-02T05:37:04;102047.25;;;7.34;100.00
20455;BME280;10386;54.314;10.022;2023-05-02T05:39:31;102047.31;;;7.33;100.00
20455;BME280;10386;54.314;10.022;2023-05-02T05:41:58;102044.06;;;7.46;100.00
20455;BME280;10386;54.314;10.022;2023-05-02T05:44:26;102052.16;;;7.46;100.00
20455;BME280;10386;54.314;10.022;2023-05-02T05:46:52;102060.50;;;7.40;100.00
20455;BME280;10386;54.314;10.022;2023-05-02T05:49:19;102056.38;;;7.53;100.00
20455;BME280;10386;54.314;10.022;2023-05-02T05:51:47;102044.88;;;7.48;100.00
20455;BME280;10386;54.314;10.022;2023-05-02T05:54:15;102054.75;;;7.49;100.00
20455;BME280;10386;54.314;10.022;2023-05-02T05:56:42;102057.91;;;7.60;100.00
20455;BME280;10386;54.314;10.022;2023-05-02T05:59:09;102046.28;;;7.58;100.00
20455;BME280;10386;54.314;10.022;2023-05-02T06:01:36;102059.34;;;7.70;100.00
20455;BME280;10386;54.314;10.022;2023-05-02T06:04:03;102056.97;;;7.61;100.00
20455;BME280;10386;54.314;10.022;2023-05-02T06:06:30;102056.91;;;7.63;100.00
20455;BME280;10386;54.314;10.022;2023-05-02T06:08:58;102058.84;;;7.59;100.00
20455;BME280;10386;54.314;10.022;2023-05-02T06:11:25;102063.16;;;7.65;100.00
20455;BME280;10386;54.314;10.022;2023-05-02T06:13:52;102066.94;;;7.82;100.00
20455;BME280;10386;54.314;10.022;2023-05-02T06:16:20;102063.91;;;7.68;100.00
20455;BME280;10386;54.314;10.022;2023-05-02T06:18:49;102064.25;;;7.82;100.00
20455;BME280;10386;54.314;10.022;2023-05-02T06:21:17;102075.06;;;7.82;100.00
20455;BME280;10386;54.314;10.022;2023-05-02T06:23:44;102079.31;;;7.88;100.00
20455;BME280;10386;54.314;10.022;2023-05-02T06:26:11;102073.72;;;7.71;100.00
20455;BME280;10386;54.314;10.022;2023-05-02T06:28:38;102082.78;;;7.91;100.00
20455;BME280;10386;54.314;10.022;2023-05-02T06:31:05;102076.94;;;7.80;100.00
20455;BME280;10386;54.314;10.022;2023-05-02T06:33:32;102084.44;;;7.95;100.00
20455;BME280;10386;54.314;10.022;2023-05-02T06:35:59;102076.31;;;7.95;100.00
20455;BME280;10386;54.314;10.022;2023-05-02T06:38:27;102079.34;;;8.09;100.00
20455;BME280;10386;54.314;10.022;2023-05-02T06:40:54;102088.44;;;8.07;100.00
20455;BME280;10386;54.314;10.022;2023-05-02T06:43:21;102086.63;;;8.07;100.00
20455;BME280;10386;54.314;10.022;2023-05-02T06:45:48;102081.94;;;8.33;100.00
20455;BME280;10386;54.314;10.022;2023-05-02T06:48:17;102089.22;;;8.53;100.00
20455;BME280;10386;54.314;10.022;2023-05-02T06:50:44;102081.59;;;8.41;100.00
20455;BME280;10386;54.314;10.022;2023-05-02T06:53:12;102081.00;;;8.54;100.00
20455;BME280;10386;54.314;10.022;2023-05-02T06:55:39;102092.75;;;8.55;100.00
20455;BME280;10386;54.314;10.022;2023-05-02T06:58:06;102088.50;;;8.48;100.00
20455;BME280;10386;54.314;10.022;2023-05-02T07:00:33;102087.13;;;8.38;100.00
20455;BME280;10386;54.314;10.022;2023-05-02T07:02:59;102115.47;;;8.51;100.00
20455;BME280;10386;54.314;10.022;2023-05-02T07:05:27;102106.50;;;8.49;100.00
20455;BME280;10386;54.314;10.022;2023-05-02T07:07:54;102106.75;;;8.43;100.00
20455;BME280;10386;54.314;10.022;2023-05-02T07:10:21;102117.09;;;8.55;100.00
20455;BME280;10386;54.314;10.022;2023-05-02T07:12:48;102121.78;;;8.50;100.00
20455;BME280;10386;54.314;10.022;2023-05-02T07:15:14;102120.22;;;8.66;100.00
20455;BME280;10386;54.314;10.022;2023-05-02T07:17:42;102111.19;;;8.65;100.00
20455;BME280;10386;54.314;10.022;2023-05-02T07:20:10;102118.00;;;8.95;100.00
20455;BME280;10386;54.314;10.022;2023-05-02T07:22:37;102114.81;;;8.86;100.00
20455;BME280;10386;54.314;10.022;2023-05-02T07:25:04;102117.50;;;9.26;100.00
20455;BME280;10386;54.314;10.022;2023-05-02T07:27:31;102122.59;;;9.33;100.00
20455;BME280;10386;54.314;10.022;2023-05-02T07:29:58;102119.22;;;9.28;100.00
20455;BME280;10386;54.314;10.022;2023-05-02T07:32:25;102118.16;;;9.31;100.00
20455;BME280;10386;54.314;10.022;2023-05-02T07:34:53;102135.03;;;9.75;100.00
20455;BME280;10386;54.314;10.022;2023-05-02T07:37:20;102130.66;;;9.53;100.00
20455;BME280;10386;54.314;10.022;2023-05-02T07:39:47;102148.75;;;9.72;100.00
20455;BME280;10386;54.314;10.022;2023-05-02T07:42:14;102139.06;;;9.85;100.00
20455;BME280;10386;54.314;10.022;2023-05-02T07:44:40;102125.53;;;9.47;100.00
20455;BME280;10386;54.314;10.022;2023-05-02T07:47:07;102131.31;;;9.40;100.00
20455;BME280;10386;54.314;10.022;2023-05-02T07:49:35;102131.06;;;9.82;100.00
20455;BME280;10386;54.314;10.022;2023-05-02T07:52:03;102128.28;;;9.27;100.00
20455;BME280;10386;54.314;10.022;2023-05-02T07:54:29;102139.72;;;9.14;100.00
20455;BME280;10386;54.314;10.022;2023-05-02T07:56:56;102148.41;;;9.22;100.00
20455;BME280;10386;54.314;10.022;2023-05-02T07:59:29;102139.34;;;9.79;100.00
20455;BME280;10386;54.314;10.022;2023-05-02T08:01:56;102127.50;;;9.82;100.00
20455;BME280;10386;54.314;10.022;2023-05-02T08:04:23;102144.00;;;11.02;100.00
20455;BME280;10386;54.314;10.022;2023-05-02T08:06:51;102128.09;;;10.95;100.00
20455;BME280;10386;54.314;10.022;2023-05-02T08:09:18;102132.31;;;11.34;100.00
20455;BME280;10386;54.314;10.022;2023-05-02T08:11:45;102130.88;;;10.59;100.00
20455;BME280;10386;54.314;10.022;2023-05-02T08:14:12;102146.84;;;10.30;100.00
20455;BME280;10386;54.314;10.022;2023-05-02T08:16:39;102145.34;;;10.06;100.00
20455;BME280;10386;54.314;10.022;2023-05-02T08:19:06;102173.28;;;9.69;100.00
20455;BME280;10386;54.314;10.022;2023-05-02T08:21:33;102172.28;;;9.90;100.00
20455;BME280;10386;54.314;10.022;2023-05-02T08:24:00;102181.03;;;10.15;100.00
20455;BME280;10386;54.314;10.022;2023-05-02T08:26:27;102183.38;;;9.66;100.00
20455;BME280;10386;54.314;10.022;2023-05-02T08:28:54;102193.69;;;9.96;100.00
20455;BME280;10386;54.314;10.022;2023-05-02T08:31:21;102169.97;;;10.74;100.00
20455;BME280;10386;54.314;10.022;2023-05-02T08:33:48;102187.56;;;11.17;100.00
20455;BME280;10386;54.314;10.022;2023-05-02T08:36:16;102166.28;;;10.75;100.00
20455;BME280;10386;54.314;10.022;2023-05-02T08:38:44;102175.75;;;10.31;100.00
20455;BME280;10386;54.314;10.022;2023-05-02T08:41:17;102188.75;;;10.24;100.00
20455;BME280;10386;54.314;10.022;2023-05-02T08:43:45;102209.03;;;10.88;100.00
20455;BME280;10386;54.314;10.022;2023-05-02T08:46:13;102207.78;;;10.95;100.00
20455;BME280;10386;54.314;10.022;2023-05-02T08:48:42;102193.59;;;10.36;100.00
20455;BME280;10386;54.314;10.022;2023-05-02T08:51:12;102221.03;;;10.84;100.00
20455;BME280;10386;54.314;10.022;2023-05-02T08:53:40;102200.47;;;10.43;100.00
20455;BME280;10386;54.314;10.022;2023-05-02T08:56:08;102198.88;;;10.39;100.00
20455;BME280;10386;54.314;10.022;2023-05-02T08:58:39;102216.16;;;10.55;100.00
20455;BME280;10386;54.314;10.022;2023-05-02T09:01:12;102204.06;;;10.44;100.00
20455;BME280;10386;54.314;10.022;2023-05-02T09:03:43;102233.41;;;10.73;100.00
20455;BME280;10386;54.314;10.022;2023-05-02T09:06:15;102210.91;;;10.34;100.00
20455;BME280;10386;54.314;10.022;2023-05-02T09:08:44;102238.69;;;10.57;100.00
20455;BME280;10386;54.314;10.022;2023-05-02T09:11:12;102230.94;;;10.85;100.00
20455;BME280;10386;54.314;10.022;2023-05-02T09:13:46;102249.63;;;11.26;100.00
20455;BME280;10386;54.314;10.022;2023-05-02T09:16:15;102201.41;;;11.47;100.00
20455;BME280;10386;54.314;10.022;2023-05-02T09:24:20;102220.59;;;11.10;100.00
20455;BME280;10386;54.314;10.022;2023-05-02T09:27:04;102224.59;;;11.37;100.00
20455;BME280;10386;54.314;10.022;2023-05-02T09:29:32;102208.72;;;10.94;100.00
20455;BME280;10386;54.314;10.022;2023-05-02T09:32:05;102204.63;;;11.21;100.00
20455;BME280;10386;54.314;10.022;2023-05-02T09:34:32;102207.88;;;10.94;100.00
20455;BME280;10386;54.314;10.022;2023-05-02T09:36:59;102227.34;;;10.85;100.00
20455;BME280;10386;54.314;10.022;2023-05-02T09:39:27;102239.47;;;11.30;100.00
20455;BME280;10386;54.314;10.022;2023-05-02T09:41:57;102234.53;;;11.21;100.00
20455;BME280;10386;54.314;10.022;2023-05-02T09:44:26;102235.81;;;11.31;100.00
20455;BME280;10386;54.314;10.022;2023-05-02T09:46:54;102227.16;;;11.06;100.00
20455;BME280;10386;54.314;10.022;2023-05-02T09:49:41;102240.78;;;10.88;100.00
20455;BME280;10386;54.314;10.022;2023-05-02T09:52:18;102237.44;;;10.64;100.00
20455;BME280;10386;54.314;10.022;2023-05-02T09:54:48;102258.75;;;10.90;100.00
20455;BME280;10386;54.314;10.022;2023-05-02T09:57:18;102264.78;;;10.97;100.00
20455;BME280;10386;54.314;10.022;2023-05-02T09:59:55;102262.91;;;10.97;100.00
20455;BME280;10386;54.314;10.022;2023-05-02T10:02:24;102271.69;;;10.85;100.00
20455;BME280;10386;54.314;10.022;2023-05-02T10:04:52;102270.19;;;10.61;100.00
20455;BME280;10386;54.314;10.022;2023-05-02T10:07:21;102274.44;;;10.48;100.00
20455;BME280;10386;54.314;10.022;2023-05-02T10:09:50;102304.94;;;10.90;100.00
20455;BME280;10386;54.314;10.022;2023-05-02T10:12:20;102313.25;;;11.22;100.00
20455;BME280;10386;54.314;10.022;2023-05-02T10:14:59;102306.25;;;11.00;100.00
20455;BME280;10386;54.314;10.022;2023-05-02T10:17:30;102312.56;;;11.19;100.00
20455;BME280;10386;54.314;10.022;2023-05-02T10:20:05;102285.78;;;10.93;100.00
20455;BME280;10386;54.314;10.022;2023-05-02T10:22:33;102316.13;;;11.19;100.00
20455;BME280;10386;54.314;10.022;2023-05-02T10:25:02;102307.66;;;11.08;100.00
20455;BME280;10386;54.314;10.022;2023-05-02T10:27:30;102316.56;;;11.29;100.00
20455;BME280;10386;54.314;10.022;2023-05-02T10:29:58;102296.59;;;10.95;100.00
20455;BME280;10386;54.314;10.022;2023-05-02T10:32:27;102313.78;;;11.47;100.00
20455;BME280;10386;54.314;10.022;2023-05-02T10:35:02;102283.19;;;11.08;100.00
20455;BME280;10386;54.314;10.022;2023-05-02T10:37:30;102288.97;;;11.36;100.00
20455;BME280;10386;54.314;10.022;2023-05-02T10:39:59;102309.88;;;11.87;100.00
20455;BME280;10386;54.314;10.022;2023-05-02T10:42:27;102273.94;;;11.29;100.00
20455;BME280;10386;54.314;10.022;2023-05-02T10:44:55;102285.06;;;11.25;100.00
20455;BME280;10386;54.314;10.022;2023-05-02T10:47:24;102282.84;;;10.98;100.00
20455;BME280;10386;54.314;10.022;2023-05-02T10:49:58;102307.50;;;11.28;100.00
20455;BME280;10386;54.314;10.022;2023-05-02T10:52:33;102285.28;;;11.37;100.00
20455;BME280;10386;54.314;10.022;2023-05-02T10:55:17;102283.00;;;11.64;100.00
20455;BME280;10386;54.314;10.022;2023-05-02T11:00:27;102267.00;;;11.75;100.00
20455;BME280;10386;54.314;10.022;2023-05-02T11:02:55;102286.59;;;11.98;100.00
20455;BME280;10386;54.314;10.022;2023-05-02T11:05:23;102309.41;;;12.28;100.00
20455;BME280;10386;54.314;10.022;2023-05-02T11:10:52;102265.44;;;12.03;100.00
20455;BME280;10386;54.314;10.022;2023-05-02T11:13:47;102269.69;;;12.72;100.00
20455;BME280;10386;54.314;10.022;2023-05-02T11:16:14;102219.66;;;12.57;100.00
20455;BME280;10386;54.314;10.022;2023-05-02T11:18:57;102220.97;;;13.12;100.00
20455;BME280;10386;54.314;10.022;2023-05-02T11:21:26;102227.63;;;13.07;100.00
20455;BME280;10386;54.314;10.022;2023-05-02T11:30:03;102215.44;;;11.89;100.00
20455;BME280;10386;54.314;10.022;2023-05-02T11:35:25;102285.59;;;12.64;100.00
20455;BME280;10386;54.314;10.022;2023-05-02T11:37:56;102233.84;;;11.84;100.00
20455;BME280;10386;54.314;10.022;2023-05-02T11:40:24;102271.16;;;11.99;100.00
20455;BME280;10386;54.314;10.022;2023-05-02T11:42:51;102292.84;;;11.49;100.00
20455;BME280;10386;54.314;10.022;2023-05-02T11:45:18;102334.00;;;11.60;100.00
20455;BME280;10386;54.314;10.022;2023-05-02T11:47:50;102347.03;;;12.05;100.00
20455;BME280;10386;54.314;10.022;2023-05-02T11:50:17;102335.69;;;11.97;100.00
20455;BME280;10386;54.314;10.022;2023-05-02T11:52:44;102327.03;;;11.55;100.00
20455;BME280;10386;54.314;10.022;2023-05-02T11:55:13;102355.50;;;11.65;100.00
20455;BME280;10386;54.314;10.022;2023-05-02T11:57:40;102338.06;;;11.69;100.00
20455;BME280;10386;54.314;10.022;2023-05-02T12:00:09;102355.94;;;11.91;100.00
20455;BME280;10386;54.314;10.022;2023-05-02T12:02:40;102351.47;;;12.39;100.00
20455;BME280;10386;54.314;10.022;2023-05-02T12:05:09;102321.44;;;13.04;100.00
20455;BME280;10386;54.314;10.022;2023-05-02T12:07:44;102298.22;;;12.49;100.00
20455;BME280;10386;54.314;10.022;2023-05-02T12:10:12;102300.72;;;12.22;100.00
20455;BME280;10386;54.314;10.022;2023-05-02T12:12:42;102325.47;;;12.34;100.00
20455;BME280;10386;54.314;10.022;2023-05-02T12:15:10;102338.00;;;12.37;100.00
20455;BME280;10386;54.314;10.022;2023-05-02T12:17:39;102296.97;;;12.39;100.00
20455;BME280;10386;54.314;10.022;2023-05-02T12:20:08;102297.97;;;12.54;100.00
20455;BME280;10386;54.314;10.022;2023-05-02T12:22:36;102282.19;;;13.07;100.00
20455;BME280;10386;54.314;10.022;2023-05-02T12:25:04;102290.09;;;12.96;100.00
20455;BME280;10386;54.314;10.022;2023-05-02T12:27:31;102301.63;;;12.85;100.00
20455;BME280;10386;54.314;10.022;2023-05-02T12:30:01;102291.56;;;12.55;100.00
20455;BME280;10386;54.314;10.022;2023-05-02T12:32:34;102321.78;;;12.50;100.00
20455;BME280;10386;54.314;10.022;2023-05-02T12:35:02;102327.50;;;12.61;100.00
20455;BME280;10386;54.314;10.022;2023-05-02T12:37:29;102318.53;;;12.59;100.00
20455;BME280;10386;54.314;10.022;2023-05-02T12:39:56;102345.59;;;12.47;100.00
20455;BME280;10386;54.314;10.022;2023-05-02T12:42:24;102360.63;;;12.22;100.00
20455;BME280;10386;54.314;10.022;2023-05-02T12:44:52;102376.25;;;12.83;100.00
20455;BME280;10386;54.314;10.022;2023-05-02T12:47:19;102345.34;;;12.51;100.00
20455;BME280;10386;54.314;10.022;2023-05-02T12:49:52;102341.97;;;12.46;100.00
20455;BME280;10386;54.314;10.022;2023-05-02T12:52:21;102377.75;;;12.88;100.00
20455;BME280;10386;54.314;10.022;2023-05-02T12:55:21;102350.88;;;12.65;100.00
20455;BME280;10386;54.314;10.022;2023-05-02T12:57:50;102359.59;;;13.04;100.00
20455;BME280;10386;54.314;10.022;2023-05-02T13:00:17;102347.63;;;13.38;100.00
20455;BME280;10386;54.314;10.022;2023-05-02T13:02:43;102296.59;;;13.09;100.00
20455;BME280;10386;54.314;10.022;2023-05-02T13:05:14;102304.28;;;13.02;100.00
20455;BME280;10386;54.314;10.022;2023-05-02T13:07:41;102310.78;;;13.15;100.00
20455;BME280;10386;54.314;10.022;2023-05-02T13:10:08;102333.66;;;13.58;100.00
20455;BME280;10386;54.314;10.022;2023-05-02T13:12:36;102300.69;;;13.47;100.00